createdAt,value
2018-07-25T00:00:33.534Z,26.00
2018-07-25T00:03:01.962Z,26.00
2018-07-25T00:05:30.375Z,26.00
2018-07-25T00:07:58.774Z,26.00
2018-07-25T00:10:32.292Z,25.90
2018-07-25T00:13:00.855Z,25.90
2018-07-25T00:15:29.277Z,25.80
2018-07-25T00:17:57.733Z,25.90
2018-07-25T00:20:26.133Z,25.80
2018-07-25T00:22:54.533Z,25.80
2018-07-25T00:25:22.892Z,25.80
2018-07-25T00:27:51.442Z,25.80
2018-07-25T00:30:20.021Z,25.80
2018-07-25T00:32:48.470Z,25.70
2018-07-25T00:35:16.885Z,25.70
2018-07-25T00:37:45.343Z,25.70
2018-07-25T00:40:13.893Z,25.70
2018-07-25T00:42:42.321Z,25.70
2018-07-25T00:45:10.908Z,25.60
2018-07-25T00:47:39.393Z,25.60
2018-07-25T00:50:07.826Z,25.50
2018-07-25T00:57:32.500Z,25.50
2018-07-25T01:00:00.941Z,25.50
2018-07-25T01:02:29.369Z,25.50
2018-07-25T01:04:57.765Z,25.60
2018-07-25T01:07:26.269Z,25.50
2018-07-25T01:09:54.701Z,25.50
2018-07-25T01:12:23.165Z,25.50
2018-07-25T01:14:51.610Z,25.50
2018-07-25T01:17:20.012Z,25.50
2018-07-25T01:19:48.464Z,25.50
2018-07-25T01:22:16.861Z,25.40
2018-07-25T01:24:45.326Z,25.40
2018-07-25T01:27:13.786Z,25.40
2018-07-25T01:29:42.174Z,25.30
2018-07-25T01:32:10.621Z,25.30
2018-07-25T01:37:07.374Z,25.20
2018-07-25T01:42:04.068Z,25.10
2018-07-25T01:44:32.512Z,25.10
2018-07-25T01:47:00.928Z,25.10
2018-07-25T01:49:29.462Z,25.00
2018-07-25T01:51:57.917Z,25.00
2018-07-25T01:54:26.311Z,25.00
2018-07-25T01:56:54.709Z,24.90
2018-07-25T02:01:51.448Z,24.90
2018-07-25T02:04:19.949Z,24.90
2018-07-25T02:06:48.358Z,24.90
2018-07-25T02:09:16.798Z,24.90
2018-07-25T02:11:45.298Z,24.90
2018-07-25T02:16:42.319Z,24.80
2018-07-25T02:19:10.749Z,24.80
2018-07-25T02:24:07.252Z,24.80
2018-07-25T02:26:35.677Z,24.70
2018-07-25T02:29:04.117Z,24.70
2018-07-25T02:31:32.594Z,24.70
2018-07-25T02:34:06.388Z,24.70
2018-07-25T02:36:34.825Z,24.60
2018-07-25T02:39:03.298Z,24.60
2018-07-25T02:41:31.713Z,24.60
2018-07-25T02:44:00.202Z,24.50
2018-07-25T02:46:28.641Z,24.50
2018-07-25T02:48:57.038Z,24.50
2018-07-25T02:51:25.472Z,24.40
2018-07-25T02:53:53.895Z,24.30
2018-07-25T02:56:22.381Z,24.30
2018-07-25T02:58:50.782Z,24.30
2018-07-25T03:01:19.316Z,24.30
2018-07-25T03:03:47.741Z,24.20
2018-07-25T03:08:44.505Z,24.20
2018-07-25T03:13:41.586Z,24.30
2018-07-25T03:16:10.138Z,24.30
2018-07-25T03:18:38.616Z,24.30
2018-07-25T03:21:07.106Z,24.20
2018-07-25T03:23:36.355Z,24.20
2018-07-25T03:26:04.762Z,24.20
2018-07-25T03:28:33.185Z,24.20
2018-07-25T03:31:01.906Z,24.10
2018-07-25T03:33:30.389Z,24.10
2018-07-25T03:35:59.561Z,24.10
2018-07-25T03:38:28.559Z,24.10
2018-07-25T03:40:56.944Z,24.00
2018-07-25T03:43:25.362Z,23.90
2018-07-25T03:45:53.812Z,23.60
2018-07-25T03:48:22.235Z,23.50
2018-07-25T03:50:50.791Z,23.40
2018-07-25T03:53:19.280Z,23.50
2018-07-25T03:55:47.641Z,23.40
2018-07-25T03:58:16.095Z,23.40
2018-07-25T04:00:44.573Z,23.40
2018-07-25T04:03:13.060Z,23.40
2018-07-25T04:05:41.450Z,23.40
2018-07-25T04:08:10.839Z,23.40
2018-07-25T04:10:39.296Z,23.30
2018-07-25T04:13:07.674Z,23.60
2018-07-25T04:15:36.189Z,23.60
2018-07-25T04:18:04.765Z,23.60
2018-07-25T04:20:33.155Z,23.60
2018-07-25T04:23:01.548Z,23.50
2018-07-25T04:25:30.082Z,23.50
2018-07-25T04:27:58.501Z,23.40
2018-07-25T04:30:26.961Z,23.40
2018-07-25T04:32:55.380Z,23.40
2018-07-25T04:35:23.774Z,23.30
2018-07-25T04:37:52.247Z,23.40
2018-07-25T04:40:20.638Z,23.20
2018-07-25T04:42:49.166Z,23.30
2018-07-25T04:45:17.657Z,23.30
2018-07-25T04:47:46.117Z,23.30
2018-07-25T04:50:14.555Z,23.40
2018-07-25T04:52:42.967Z,23.40
2018-07-25T04:55:11.469Z,23.50
2018-07-25T04:57:39.888Z,23.50
2018-07-25T05:00:08.321Z,23.50
2018-07-25T05:02:36.813Z,23.50
2018-07-25T05:05:05.470Z,23.60
2018-07-25T05:07:33.869Z,23.60
2018-07-25T05:10:02.295Z,23.60
2018-07-25T05:12:30.779Z,23.60
2018-07-25T05:14:59.164Z,23.60
2018-07-25T05:17:27.653Z,23.70
2018-07-25T05:22:24.374Z,23.70
2018-07-25T05:24:52.766Z,23.80
2018-07-25T05:27:21.216Z,23.80
2018-07-25T05:29:50.360Z,23.80
2018-07-25T05:32:18.735Z,23.90
2018-07-25T05:34:47.219Z,24.00
2018-07-25T05:37:15.980Z,24.00
2018-07-25T05:39:44.612Z,24.10
2018-07-25T05:42:12.985Z,24.10
2018-07-25T05:44:41.693Z,24.10
2018-07-25T05:49:38.254Z,24.10
2018-07-25T05:52:06.618Z,24.20
2018-07-25T05:54:35.037Z,24.20
2018-07-25T05:57:03.530Z,24.20
2018-07-25T05:59:31.970Z,24.20
2018-07-25T06:04:28.540Z,24.30
2018-07-25T06:06:56.932Z,24.30
2018-07-25T06:09:25.438Z,24.40
2018-07-25T06:11:53.954Z,24.50
2018-07-25T06:14:22.470Z,24.50
2018-07-25T06:16:51.026Z,24.60
2018-07-25T06:19:19.427Z,24.70
2018-07-25T06:21:47.936Z,24.70
2018-07-25T06:24:16.388Z,24.70
2018-07-25T06:26:44.796Z,24.80
2018-07-25T06:29:13.970Z,24.80
2018-07-25T06:31:42.366Z,24.90
2018-07-25T06:34:10.823Z,24.90
2018-07-25T06:39:10.428Z,25.00
2018-07-25T06:41:39.053Z,25.10
2018-07-25T06:44:08.236Z,25.10
2018-07-25T06:46:36.727Z,25.30
2018-07-25T06:49:05.753Z,25.30
2018-07-25T06:51:34.213Z,25.40
2018-07-25T06:54:02.669Z,25.60
2018-07-25T06:56:31.589Z,25.80
2018-07-25T06:59:00.024Z,26.10
2018-07-25T07:01:29.069Z,26.40
2018-07-25T07:03:57.473Z,26.50
2018-07-25T07:06:25.984Z,26.70
2018-07-25T07:08:54.425Z,26.80
2018-07-25T07:11:22.930Z,26.80
2018-07-25T07:13:51.765Z,26.80
2018-07-25T07:16:20.224Z,26.70
2018-07-25T07:18:48.630Z,26.60
2018-07-25T07:21:17.108Z,26.50
2018-07-25T07:23:45.477Z,26.60
2018-07-25T07:26:13.865Z,26.60
2018-07-25T07:28:42.661Z,26.70
2018-07-25T07:31:11.162Z,27.10
2018-07-25T07:33:40.236Z,27.50
2018-07-25T07:36:08.637Z,27.90
2018-07-25T07:38:37.108Z,28.00
2018-07-25T07:41:05.503Z,27.90
2018-07-25T07:43:33.986Z,27.70
2018-07-25T07:46:02.589Z,27.50
2018-07-25T07:48:31.586Z,27.70
2018-07-25T07:51:00.030Z,27.90
2018-07-25T07:53:28.448Z,28.10
2018-07-25T07:55:56.872Z,28.40
2018-07-25T07:58:25.347Z,28.30
2018-07-25T08:00:53.754Z,28.20
2018-07-25T08:03:22.188Z,28.40
2018-07-25T08:05:50.614Z,28.80
2018-07-25T08:08:19.006Z,29.20
2018-07-25T08:10:47.491Z,29.50
2018-07-25T08:13:15.858Z,29.50
2018-07-25T08:18:12.365Z,29.80
2018-07-25T08:20:40.781Z,30.10
2018-07-25T08:23:09.159Z,30.00
2018-07-25T08:25:37.544Z,30.20
2018-07-25T08:28:06.089Z,30.30
2018-07-25T08:30:34.509Z,30.60
2018-07-25T08:33:02.929Z,30.90
2018-07-25T08:35:31.492Z,31.00
2018-07-25T08:37:59.930Z,31.20
2018-07-25T08:40:28.413Z,31.40
2018-07-25T08:42:56.853Z,31.60
2018-07-25T08:45:25.302Z,31.60
2018-07-25T08:47:53.737Z,31.60
2018-07-25T08:50:22.218Z,31.90
2018-07-25T08:52:50.633Z,32.10
2018-07-25T08:55:18.999Z,31.90
2018-07-25T08:57:47.458Z,31.90
2018-07-25T09:00:15.792Z,32.30
2018-07-25T09:02:44.237Z,32.40
2018-07-25T09:05:12.684Z,32.50
2018-07-25T09:07:41.835Z,32.60
2018-07-25T09:12:38.431Z,33.10
2018-07-25T09:15:06.844Z,33.30
2018-07-25T09:17:35.334Z,33.30
2018-07-25T09:20:03.773Z,33.50
2018-07-25T09:22:32.148Z,33.40
2018-07-25T09:25:00.685Z,33.40
2018-07-25T09:27:29.105Z,33.50
2018-07-25T09:32:25.636Z,33.80
2018-07-25T09:34:54.017Z,34.00
2018-07-25T09:37:22.500Z,33.90
2018-07-25T09:39:50.994Z,34.10
2018-07-25T09:42:19.422Z,34.20
2018-07-25T09:44:47.913Z,34.40
2018-07-25T09:47:16.381Z,34.40
2018-07-25T09:49:44.781Z,34.40
2018-07-25T09:52:13.208Z,34.70
2018-07-25T09:54:41.658Z,34.80
2018-07-25T09:57:10.261Z,35.10
2018-07-25T09:59:38.754Z,35.30
2018-07-25T10:02:07.337Z,35.30
2018-07-25T10:04:35.761Z,35.60
2018-07-25T10:07:04.290Z,35.80
2018-07-25T10:09:32.721Z,36.00
2018-07-25T10:12:01.148Z,36.10
2018-07-25T10:14:29.619Z,36.20
2018-07-25T10:16:58.305Z,36.30
2018-07-25T10:19:27.053Z,36.40
2018-07-25T10:21:55.456Z,36.50
2018-07-25T10:24:23.952Z,36.50
2018-07-25T10:26:52.338Z,36.30
2018-07-25T10:29:20.767Z,36.40
2018-07-25T10:31:49.196Z,36.40
2018-07-25T10:34:17.638Z,36.50
2018-07-25T10:36:46.055Z,36.50
2018-07-25T10:39:14.469Z,36.90
2018-07-25T10:41:42.879Z,37.10
2018-07-25T10:44:11.368Z,37.20
2018-07-25T10:46:39.780Z,37.30
2018-07-25T10:49:08.185Z,37.60
2018-07-25T10:51:36.647Z,37.80
2018-07-25T10:54:05.106Z,37.70
2018-07-25T10:56:33.668Z,37.60
2018-07-25T10:59:02.128Z,37.90
2018-07-25T11:01:31.119Z,37.80
2018-07-25T11:03:59.619Z,37.50
2018-07-25T11:06:27.995Z,37.20
2018-07-25T11:11:28.006Z,37.00
2018-07-25T11:13:57.578Z,37.30
2018-07-25T11:16:26.188Z,37.50
2018-07-25T11:18:54.740Z,37.70
2018-07-25T11:21:23.239Z,37.90
2018-07-25T11:23:51.661Z,37.80
2018-07-25T11:26:20.108Z,37.90
2018-07-25T11:28:48.565Z,38.10
2018-07-25T11:31:17.024Z,38.30
2018-07-25T11:33:45.400Z,38.60
2018-07-25T11:36:13.892Z,38.10
2018-07-25T11:38:42.656Z,37.80
2018-07-25T11:41:11.114Z,38.10
2018-07-25T11:43:39.511Z,38.40
2018-07-25T11:46:07.950Z,38.50
2018-07-25T11:51:04.467Z,38.80
2018-07-25T11:53:33.080Z,38.70
2018-07-25T11:56:01.575Z,38.10
2018-07-25T11:58:29.930Z,37.70
2018-07-25T12:00:58.328Z,37.40
2018-07-25T12:03:26.729Z,36.90
2018-07-25T12:05:55.124Z,36.70
2018-07-25T12:08:23.539Z,36.40
2018-07-25T12:10:52.038Z,36.50
2018-07-25T12:15:49.263Z,36.10
2018-07-25T12:18:17.747Z,35.90
2018-07-25T12:20:46.144Z,35.70
2018-07-25T12:23:14.519Z,35.60
2018-07-25T12:25:43.240Z,35.40
2018-07-25T12:28:11.654Z,35.20
2018-07-25T12:30:40.077Z,35.30
2018-07-25T12:33:08.513Z,35.30
2018-07-25T12:35:36.998Z,35.30
2018-07-25T12:38:05.412Z,35.30
2018-07-25T12:40:33.842Z,35.30
2018-07-25T12:43:02.273Z,35.30
2018-07-25T12:45:31.289Z,36.00
2018-07-25T12:48:01.528Z,36.40
2018-07-25T12:50:30.025Z,36.70
2018-07-25T12:52:58.482Z,36.90
2018-07-25T12:55:26.957Z,36.90
2018-07-25T12:57:55.388Z,36.80
2018-07-25T13:00:24.480Z,36.40
2018-07-25T13:02:52.936Z,36.10
2018-07-25T13:05:21.412Z,36.30
2018-07-25T13:07:49.909Z,36.10
2018-07-25T13:10:18.413Z,36.20
2018-07-25T13:12:47.557Z,35.70
2018-07-25T13:15:16.079Z,35.60
2018-07-25T13:17:44.511Z,35.50
2018-07-25T13:20:12.917Z,36.00
2018-07-25T13:22:41.410Z,36.30
2018-07-25T13:25:09.869Z,36.10
2018-07-25T13:27:38.309Z,36.20
2018-07-25T13:30:07.114Z,36.40
2018-07-25T13:32:35.646Z,36.70
2018-07-25T13:35:04.561Z,36.80
2018-07-25T13:37:33.088Z,37.20
2018-07-25T13:40:01.558Z,37.30
2018-07-25T13:42:30.036Z,37.30
2018-07-25T13:44:58.492Z,37.10
2018-07-25T13:47:26.940Z,37.10
2018-07-25T13:49:55.491Z,37.20
2018-07-25T13:52:30.472Z,37.30
2018-07-25T13:54:59.364Z,37.20
2018-07-25T13:57:27.857Z,37.00
2018-07-25T13:59:56.288Z,36.80
2018-07-25T14:02:24.721Z,36.90
2018-07-25T14:04:53.177Z,36.90
2018-07-25T14:07:21.651Z,36.90
2018-07-25T14:09:50.158Z,36.80
2018-07-25T14:12:18.598Z,36.80
2018-07-25T14:14:47.098Z,36.90
2018-07-25T14:17:15.520Z,37.00
2018-07-25T14:19:43.973Z,36.80
2018-07-25T14:22:12.401Z,36.90
2018-07-25T14:24:40.857Z,36.90
2018-07-25T14:27:09.345Z,36.90
2018-07-25T14:29:37.763Z,36.80
2018-07-25T14:32:06.633Z,36.60
2018-07-25T14:34:35.108Z,36.70
2018-07-25T14:37:03.583Z,36.60
2018-07-25T14:39:32.052Z,36.40
2018-07-25T14:44:28.608Z,36.50
2018-07-25T14:46:58.151Z,36.30
2018-07-25T14:49:26.917Z,36.40
2018-07-25T14:51:55.944Z,36.30
2018-07-25T14:54:24.812Z,36.20
2018-07-25T14:56:53.244Z,36.10
2018-07-25T14:59:21.879Z,36.00
2018-07-25T15:01:50.507Z,36.10
2018-07-25T15:04:19.147Z,36.20
2018-07-25T15:06:47.592Z,36.10
2018-07-25T15:09:16.070Z,36.00
2018-07-25T15:11:44.501Z,35.90
2018-07-25T15:14:12.959Z,35.70
2018-07-25T15:16:42.151Z,35.60
2018-07-25T15:19:10.604Z,35.50
2018-07-25T15:21:39.102Z,35.70
2018-07-25T15:24:08.456Z,35.60
2018-07-25T15:26:36.918Z,35.50
2018-07-25T15:29:05.841Z,35.60
2018-07-25T15:31:34.362Z,35.70
2018-07-25T15:34:02.858Z,35.70
2018-07-25T15:36:40.519Z,35.50
2018-07-25T15:39:18.338Z,35.30
2018-07-25T15:41:47.688Z,35.10
2018-07-25T15:44:16.881Z,35.00
2018-07-25T15:46:52.116Z,34.90
2018-07-25T15:49:20.664Z,34.80
2018-07-25T15:51:49.492Z,34.90
2018-07-25T15:54:17.929Z,34.90
2018-07-25T15:56:46.364Z,34.60
2018-07-25T15:59:14.800Z,34.50
2018-07-25T16:01:43.920Z,34.30
2018-07-25T16:04:12.401Z,34.40
2018-07-25T16:06:40.880Z,34.40
2018-07-25T16:09:10.541Z,34.20
2018-07-25T16:11:39.523Z,34.10
2018-07-25T16:14:07.969Z,34.00
2018-07-25T16:16:36.585Z,33.80
2018-07-25T16:19:05.242Z,33.80
2018-07-25T16:21:33.747Z,33.80
2018-07-25T16:26:31.713Z,33.70
2018-07-25T16:29:01.598Z,33.60
2018-07-25T16:31:30.543Z,33.50
2018-07-25T16:33:58.978Z,33.40
2018-07-25T16:36:27.486Z,33.50
2018-07-25T16:38:56.629Z,33.40
2018-07-25T16:41:25.131Z,33.20
2018-07-25T16:43:53.612Z,33.10
2018-07-25T16:46:22.090Z,33.20
2018-07-25T16:48:51.885Z,33.00
2018-07-25T16:51:20.729Z,33.00
2018-07-25T16:53:49.703Z,33.00
2018-07-25T16:56:18.179Z,33.00
2018-07-25T16:58:46.597Z,33.00
2018-07-25T17:01:15.089Z,32.90
2018-07-25T17:03:43.551Z,32.80
2018-07-25T17:06:11.953Z,32.70
2018-07-25T17:08:40.457Z,32.70
2018-07-25T17:11:08.936Z,32.70
2018-07-25T17:13:37.394Z,32.70
2018-07-25T17:16:05.895Z,32.70
2018-07-25T17:18:34.351Z,32.70
2018-07-25T17:21:02.919Z,32.60
2018-07-25T17:23:31.346Z,32.50
2018-07-25T17:25:59.754Z,32.30
2018-07-25T17:28:28.272Z,32.20
2018-07-25T17:30:56.753Z,32.00
2018-07-25T17:33:25.270Z,32.10
2018-07-25T17:35:53.727Z,32.10
2018-07-25T17:38:22.205Z,32.20
2018-07-25T17:40:50.669Z,32.10
2018-07-25T17:43:19.497Z,32.10
2018-07-25T17:45:47.956Z,32.00
2018-07-25T17:48:16.373Z,31.90
2018-07-25T17:50:44.853Z,31.90
2018-07-25T17:53:13.249Z,31.90
2018-07-25T17:55:41.702Z,31.70
2018-07-25T17:58:10.131Z,31.50
2018-07-25T18:00:38.557Z,31.50
2018-07-25T18:03:07.008Z,31.50
2018-07-25T18:05:35.499Z,31.50
2018-07-25T18:08:03.963Z,31.30
2018-07-25T18:10:32.454Z,31.20
2018-07-25T18:13:06.160Z,31.10
2018-07-25T18:15:34.625Z,30.80
2018-07-25T18:18:03.070Z,30.70
2018-07-25T18:20:31.514Z,30.60
2018-07-25T18:23:00.084Z,30.60
2018-07-25T18:25:28.493Z,30.60
2018-07-25T18:27:56.997Z,30.60
2018-07-25T18:30:25.470Z,30.60
2018-07-25T18:32:54.061Z,30.50
2018-07-25T18:35:22.550Z,30.50
2018-07-25T18:37:51.018Z,30.50
2018-07-25T18:40:20.390Z,30.40
2018-07-25T18:42:49.079Z,30.40
2018-07-25T18:45:17.929Z,30.40
2018-07-25T18:47:46.530Z,30.20
2018-07-25T18:50:15.272Z,30.20
2018-07-25T18:52:44.366Z,30.20
2018-07-25T18:55:12.898Z,30.20
2018-07-25T18:57:41.342Z,30.10
2018-07-25T19:00:09.816Z,30.10
2018-07-25T19:02:38.265Z,30.00
2018-07-25T19:05:06.727Z,30.10
2018-07-25T19:07:35.212Z,30.00
2018-07-25T19:12:32.059Z,30.00
2018-07-25T19:15:06.194Z,29.90
2018-07-25T19:17:34.747Z,29.90
2018-07-25T19:20:03.464Z,29.90
2018-07-25T19:22:32.150Z,29.80
2018-07-25T19:25:00.851Z,29.70
2018-07-25T19:27:29.369Z,29.70
2018-07-25T19:29:58.388Z,29.70
2018-07-25T19:32:27.184Z,29.70
2018-07-25T19:34:56.064Z,29.70
2018-07-25T19:37:24.843Z,29.60
2018-07-25T19:39:53.299Z,29.60
2018-07-25T19:42:21.730Z,29.50
2018-07-25T19:44:50.235Z,29.50
2018-07-25T19:47:18.701Z,29.50
2018-07-25T19:49:47.151Z,29.50
2018-07-25T19:52:15.605Z,29.40
2018-07-25T19:54:44.474Z,29.40
2018-07-25T19:57:12.943Z,29.30
2018-07-25T19:59:41.612Z,29.30
2018-07-25T20:02:10.208Z,29.20
2018-07-25T20:04:38.646Z,29.20
2018-07-25T20:07:07.897Z,29.20
2018-07-25T20:09:36.267Z,29.20
2018-07-25T20:12:05.045Z,29.10
2018-07-25T20:14:38.974Z,29.10
2018-07-25T20:19:35.829Z,29.00
2018-07-25T20:22:04.366Z,28.90
2018-07-25T20:24:33.096Z,28.90
2018-07-25T20:27:01.775Z,28.80
2018-07-25T20:31:58.626Z,28.70
2018-07-25T20:34:27.309Z,28.60
2018-07-25T20:36:55.729Z,28.60
2018-07-25T20:39:24.321Z,28.60
2018-07-25T20:41:52.778Z,28.60
2018-07-25T20:44:21.188Z,28.50
2018-07-25T20:46:49.698Z,28.50
2018-07-25T20:49:18.412Z,28.40
2018-07-25T20:51:46.883Z,28.40
2018-07-25T20:54:15.598Z,28.30
2018-07-25T20:56:44.078Z,28.30
2018-07-25T20:59:12.899Z,28.30
2018-07-25T21:01:41.608Z,28.30
2018-07-25T21:04:10.133Z,28.20
2018-07-25T21:06:38.582Z,28.20
2018-07-25T21:09:07.963Z,28.20
2018-07-25T21:11:36.544Z,28.20
2018-07-25T21:14:05.031Z,28.20
2018-07-25T21:16:33.540Z,28.10
2018-07-25T21:19:01.970Z,28.10
2018-07-25T21:21:30.481Z,28.00
2018-07-25T21:23:58.889Z,28.00
2018-07-25T21:26:27.314Z,27.90
2018-07-25T21:28:55.747Z,27.90
2018-07-25T21:31:24.162Z,27.90
2018-07-25T21:33:52.671Z,27.90
2018-07-25T21:36:21.059Z,27.90
2018-07-25T21:38:49.477Z,27.80
2018-07-25T21:41:17.881Z,27.80
2018-07-25T21:43:46.310Z,27.70
2018-07-25T21:46:14.762Z,27.70
2018-07-25T21:48:43.196Z,27.70
2018-07-25T21:51:11.641Z,27.60
2018-07-25T21:53:40.009Z,27.60
2018-07-25T21:56:08.410Z,27.60
2018-07-25T22:01:15.403Z,27.50
2018-07-25T22:03:44.161Z,27.50
2018-07-25T22:06:12.566Z,27.40
2018-07-25T22:08:40.997Z,27.40
2018-07-25T22:11:09.456Z,27.30
2018-07-25T22:13:42.097Z,27.30
2018-07-25T22:16:10.789Z,27.20
2018-07-25T22:18:39.237Z,27.20
2018-07-25T22:21:07.609Z,27.20
2018-07-25T22:23:36.092Z,27.20
2018-07-25T22:26:04.546Z,27.10
2018-07-25T22:28:33.006Z,27.10
2018-07-25T22:31:01.549Z,27.10
2018-07-25T22:33:30.012Z,27.00
2018-07-25T22:35:58.469Z,27.00
2018-07-25T22:38:26.885Z,27.00
2018-07-25T22:40:55.325Z,26.90
2018-07-25T22:43:23.754Z,26.90
2018-07-25T22:45:52.136Z,26.80
2018-07-25T22:48:20.605Z,26.80
2018-07-25T22:50:49.059Z,26.70
2018-07-25T22:53:17.469Z,26.70
2018-07-25T22:55:46.631Z,26.70
2018-07-25T22:58:15.096Z,26.70
2018-07-25T23:00:43.565Z,26.60
2018-07-25T23:03:12.098Z,26.60
2018-07-25T23:05:40.541Z,26.60
2018-07-25T23:08:08.986Z,26.50
2018-07-25T23:10:37.390Z,26.50
2018-07-25T23:13:05.792Z,26.40
2018-07-25T23:15:41.056Z,26.40
2018-07-25T23:18:09.571Z,26.40
2018-07-25T23:20:37.966Z,26.40
2018-07-25T23:23:06.332Z,26.40
2018-07-25T23:25:34.746Z,26.30
2018-07-25T23:28:03.153Z,26.30
2018-07-25T23:30:31.533Z,26.20
2018-07-25T23:33:00.818Z,26.20
2018-07-25T23:35:29.197Z,26.20
2018-07-25T23:37:57.593Z,26.10
2018-07-25T23:40:26.047Z,26.10
2018-07-25T23:42:54.438Z,26.10
2018-07-25T23:45:23.021Z,26.10
2018-07-25T23:47:51.425Z,26.00
2018-07-25T23:50:19.864Z,26.00
2018-07-25T23:52:48.971Z,25.90
2018-07-25T23:55:17.373Z,25.90
2018-07-25T23:57:45.751Z,25.80
